Time;durP1;ratioP1;P1;durP2;ratioP2;P2;SDS_P1;SDS_P2;PMS_P1;PMS_P2;Temp;Humidity;BMP_temperature;BMP_pressure;BME280_temperature;BME280_humidity;BME280_pressure;Samples;Min_cycle;Max_cycle;Signal;HPM_P1;HPM_P2
2023/10/14 00:00:26;;;;;;;12.80;5.10;;;;;;;;;;103816;1289;545500;-75
2023/10/14 00:03:45;;;;;;;12.40;4.00;;;;;;;;;;103723;1291;545498;-75
2023/10/14 00:07:25;;;;;;;11.60;4.10;;;;;;;;;;104181;1288;545058;-74
2023/10/14 00:11:09;;;;;;;12.10;3.90;;;;;;;;;;103556;1298;548209;-74
2023/10/14 00:14:37;;;;;;;10.60;3.60;;;;;;;;;;103802;1292;545662;-74
2023/10/14 00:18:17;;;;;;;11.90;3.80;;;;;;;;;;103768;1291;544963;-74
2023/10/14 00:21:52;;;;;;;9.50;3.70;;;;;;;;;;103780;1289;544790;-74
2023/10/14 00:25:33;;;;;;;12.50;3.90;;;;;;;;;;103887;1288;544800;-74
2023/10/14 00:32:45;;;;;;;12.50;4.40;;;;;;;;;;103736;1291;545431;-74
2023/10/14 00:36:23;;;;;;;10.20;4.00;;;;;;;;;;103966;1289;545609;-76
2023/10/14 00:40:10;;;;;;;10.80;4.10;;;;;;;;;;104012;1299;544856;-74
2023/10/14 00:43:39;;;;;;;9.80;4.10;;;;;;;;;;103886;1289;545979;-75
2023/10/14 00:47:15;;;;;;;11.60;4.30;;;;;;;;;;103741;1291;545079;-75
2023/10/14 00:50:59;;;;;;;14.80;4.40;;;;;;;;;;103653;1291;547864;-73
2023/10/14 00:58:07;;;;;;;10.00;4.10;;;;;;;;;;104101;1291;544777;-75
2023/10/14 01:01:58;;;;;;;11.40;4.00;;;;;;;;;;104050;1289;544601;-74
2023/10/14 01:05:23;;;;;;;11.60;4.00;;;;;;;;;;103759;1289;545020;-75
2023/10/14 01:09:10;;;;;;;11.70;4.10;;;;;;;;;;104208;1288;545155;-74
2023/10/14 01:12:39;;;;;;;11.40;4.40;;;;;;;;;;103956;1292;545438;-75
2023/10/14 01:16:15;;;;;;;9.20;3.80;;;;;;;;;;103752;1290;544797;-74
2023/10/14 01:19:52;;;;;;;10.20;3.70;;;;;;;;;;103765;1289;545923;-75
2023/10/14 01:23:29;;;;;;;11.40;4.00;;;;;;;;;;103837;1295;545445;-75
2023/10/14 01:27:07;;;;;;;9.10;3.80;;;;;;;;;;103715;1289;544812;-75
2023/10/14 01:30:55;;;;;;;12.00;4.00;;;;;;;;;;103695;1292;545345;-75
2023/10/14 01:34:31;;;;;;;12.50;4.30;;;;;;;;;;103597;1292;548004;-74
2023/10/14 01:38:00;;;;;;;10.30;3.60;;;;;;;;;;103918;1289;544763;-75
2023/10/14 01:41:36;;;;;;;10.90;3.90;;;;;;;;;;103777;1289;545978;-75
2023/10/14 01:45:20;;;;;;;12.30;4.00;;;;;;;;;;103632;1293;545076;-74
2023/10/14 01:48:52;;;;;;;11.50;3.80;;;;;;;;;;103819;1289;544941;-76
2023/10/14 01:52:31;;;;;;;12.00;3.90;;;;;;;;;;103819;1295;545037;-75
2023/10/14 01:56:06;;;;;;;11.30;4.00;;;;;;;;;;103846;1289;544973;-75
2023/10/14 01:59:45;;;;;;;11.90;4.10;;;;;;;;;;103750;1288;545101;-74
2023/10/14 02:03:22;;;;;;;13.30;4.20;;;;;;;;;;103994;1291;544724;-74
2023/10/14 02:07:43;;;;;;;10.90;4.00;;;;;;;;;;103731;1290;544896;-75
2023/10/14 02:10:36;;;;;;;10.90;4.00;;;;;;;;;;103775;1292;545087;-76
2023/10/14 02:14:22;;;;;;;11.30;3.80;;;;;;;;;;103648;1295;544901;-75
2023/10/14 02:17:50;;;;;;;9.40;3.50;;;;;;;;;;103728;1289;545579;-75
2023/10/14 02:21:35;;;;;;;11.20;4.30;;;;;;;;;;103576;1291;547825;-74
2023/10/14 02:25:06;;;;;;;11.30;4.40;;;;;;;;;;103878;1292;545619;-75
2023/10/14 02:28:47;;;;;;;13.20;4.40;;;;;;;;;;103598;1291;544859;-74
2023/10/14 02:32:21;;;;;;;15.40;4.00;;;;;;;;;;103749;1291;544995;-75
2023/10/14 02:35:59;;;;;;;11.80;4.00;;;;;;;;;;103691;1292;545709;-76
2023/10/14 02:39:35;;;;;;;10.30;4.20;;;;;;;;;;103731;1291;544986;-75
2023/10/14 02:43:21;;;;;;;11.60;4.30;;;;;;;;;;103540;1291;547774;-75
2023/10/14 02:46:54;;;;;;;10.80;4.20;;;;;;;;;;103719;1292;545036;-75
2023/10/14 02:50:30;;;;;;;10.90;4.30;;;;;;;;;;103525;1292;544960;-76
2023/10/14 02:54:15;;;;;;;10.00;4.00;;;;;;;;;;103663;1291;545166;-74
2023/10/14 02:57:46;;;;;;;13.20;4.70;;;;;;;;;;103521;1291;544724;-74
2023/10/14 03:01:23;;;;;;;11.10;4.10;;;;;;;;;;103866;1289;544955;-74
2023/10/14 03:08:35;;;;;;;10.20;4.60;;;;;;;;;;103690;1300;545508;-73
2023/10/14 03:12:18;;;;;;;12.00;4.40;;;;;;;;;;104172;1285;545985;-74
2023/10/14 03:15:54;;;;;;;11.60;4.10;;;;;;;;;;103947;1288;544789;-75
2023/10/14 03:19:27;;;;;;;11.00;4.60;;;;;;;;;;103639;1298;544942;-75
2023/10/14 03:26:47;;;;;;;12.70;4.80;;;;;;;;;;103615;1291;544909;-74
2023/10/14 03:30:21;;;;;;;13.60;4.70;;;;;;;;;;103793;1292;544851;-74
2023/10/14 03:33:58;;;;;;;12.80;4.50;;;;;;;;;;103732;1291;544751;-74
2023/10/14 03:37:40;;;;;;;10.70;4.30;;;;;;;;;;103776;1289;544978;-75
2023/10/14 03:41:20;;;;;;;11.00;4.40;;;;;;;;;;103797;1289;545000;-74
2023/10/14 03:44:51;;;;;;;13.20;4.90;;;;;;;;;;103654;1291;545482;-74
2023/10/14 03:48:30;;;;;;;13.60;4.50;;;;;;;;;;103905;1288;544775;-74
2023/10/14 03:52:10;;;;;;;12.60;4.50;;;;;;;;;;103891;1288;544965;-74
2023/10/14 03:55:42;;;;;;;13.30;4.70;;;;;;;;;;103624;1292;544724;-74
2023/10/14 03:59:22;;;;;;;12.20;4.70;;;;;;;;;;103721;1295;545499;-74
2023/10/14 04:02:58;;;;;;;11.90;4.70;;;;;;;;;;103759;1292;545941;-74
2023/10/14 04:06:34;;;;;;;11.10;4.80;;;;;;;;;;103769;1291;544941;-74
2023/10/14 04:10:14;;;;;;;12.00;5.40;;;;;;;;;;103766;1293;545428;-74
2023/10/14 04:14:03;;;;;;;11.60;4.90;;;;;;;;;;103773;1290;544872;-74
2023/10/14 04:17:31;;;;;;;11.70;4.80;;;;;;;;;;103692;1292;545549;-74
2023/10/14 04:28:30;;;;;;;12.00;4.50;;;;;;;;;;103849;1293;545017;-74
2023/10/14 04:31:57;;;;;;;12.40;5.00;;;;;;;;;;103701;1292;545749;-74
2023/10/14 04:35:36;;;;;;;12.30;5.20;;;;;;;;;;103860;1292;545031;-75
2023/10/14 04:39:15;;;;;;;12.00;5.50;;;;;;;;;;103760;1292;546135;-74
2023/10/14 04:42:58;;;;;;;13.20;4.90;;;;;;;;;;103621;1293;548135;-74
2023/10/14 04:46:34;;;;;;;10.90;4.60;;;;;;;;;;103952;1292;545163;-74
2023/10/14 04:50:10;;;;;;;13.30;5.00;;;;;;;;;;103813;1291;544998;-74
2023/10/14 04:53:46;;;;;;;12.40;4.50;;;;;;;;;;103707;1291;545828;-76
2023/10/14 04:57:22;;;;;;;13.40;5.10;;;;;;;;;;103745;1289;545392;-73
2023/10/14 05:01:00;;;;;;;11.60;4.80;;;;;;;;;;103703;1293;546329;-74
2023/10/14 05:04:37;;;;;;;15.90;5.00;;;;;;;;;;103782;1301;545454;-74
2023/10/14 05:08:15;;;;;;;11.40;4.60;;;;;;;;;;103688;1288;545407;-74
2023/10/14 05:12:00;;;;;;;12.90;4.80;;;;;;;;;;103844;1292;544970;-74
2023/10/14 05:15:40;;;;;;;11.80;4.60;;;;;;;;;;103754;1289;545239;-75
2023/10/14 05:19:15;;;;;;;10.30;4.30;;;;;;;;;;103678;1292;544958;-75
2023/10/14 05:22:52;;;;;;;13.50;4.20;;;;;;;;;;103816;1292;544824;-74
2023/10/14 05:26:35;;;;;;;13.10;4.80;;;;;;;;;;103590;1292;544989;-74
2023/10/14 05:30:06;;;;;;;11.60;4.50;;;;;;;;;;103734;1289;545354;-75
2023/10/14 05:33:43;;;;;;;11.90;4.30;;;;;;;;;;103709;1289;545011;-75
2023/10/14 05:37:23;;;;;;;9.80;4.10;;;;;;;;;;103722;1290;545723;-75
2023/10/14 05:41:09;;;;;;;13.00;4.90;;;;;;;;;;103325;1294;548191;-74
2023/10/14 05:44:36;;;;;;;12.50;4.70;;;;;;;;;;103722;1289;544863;-74
2023/10/14 05:48:13;;;;;;;11.70;4.60;;;;;;;;;;103978;1290;545044;-74
2023/10/14 05:51:51;;;;;;;11.60;4.30;;;;;;;;;;103834;1289;545020;-75
2023/10/14 05:55:31;;;;;;;10.20;4.40;;;;;;;;;;103741;1289;544764;-75
2023/10/14 05:59:06;;;;;;;12.80;4.50;;;;;;;;;;103795;1290;545519;-74
2023/10/14 06:02:44;;;;;;;11.60;4.60;;;;;;;;;;103678;1290;545405;-75
2023/10/14 06:06:21;;;;;;;12.30;4.40;;;;;;;;;;103796;1289;544991;-74
2023/10/14 06:09:58;;;;;;;13.30;4.70;;;;;;;;;;103820;1291;544779;-76
2023/10/14 06:13:35;;;;;;;12.40;4.30;;;;;;;;;;103703;1291;546045;-74
2023/10/14 06:17:14;;;;;;;12.50;4.30;;;;;;;;;;104055;1285;544970;-75
2023/10/14 06:20:51;;;;;;;13.70;4.60;;;;;;;;;;103754;1292;545621;-75
2023/10/14 06:24:29;;;;;;;11.40;4.20;;;;;;;;;;103768;1295;544973;-75
2023/10/14 06:28:07;;;;;;;12.00;4.00;;;;;;;;;;103585;1293;544747;-75
2023/10/14 06:31:42;;;;;;;10.80;3.90;;;;;;;;;;103620;1291;545176;-74
2023/10/14 06:35:20;;;;;;;10.00;4.40;;;;;;;;;;103748;1297;544750;-74
2023/10/14 06:39:12;;;;;;;11.20;4.20;;;;;;;;;;103728;1292;544768;-74
2023/10/14 06:42:40;;;;;;;10.10;3.90;;;;;;;;;;103861;1291;544856;-75
2023/10/14 06:46:12;;;;;;;12.70;4.30;;;;;;;;;;103738;1293;545554;-74
2023/10/14 06:49:51;;;;;;;11.60;4.10;;;;;;;;;;103770;1292;546039;-74
2023/10/14 06:53:34;;;;;;;12.50;4.40;;;;;;;;;;103498;1292;547849;-75
2023/10/14 06:57:07;;;;;;;10.90;4.10;;;;;;;;;;104128;1296;545075;-74
2023/10/14 07:00:42;;;;;;;9.90;4.00;;;;;;;;;;103840;1289;545017;-74
2023/10/14 07:04:20;;;;;;;10.90;4.00;;;;;;;;;;103852;1288;544925;-76
2023/10/14 07:07:58;;;;;;;13.40;4.40;;;;;;;;;;103735;1295;544818;-74
2023/10/14 07:11:35;;;;;;;13.30;4.00;;;;;;;;;;104504;1285;544864;-74
2023/10/14 07:15:12;;;;;;;11.90;4.10;;;;;;;;;;103718;1291;544831;-76
2023/10/14 07:18:50;;;;;;;13.70;4.40;;;;;;;;;;104618;1285;545983;-73
2023/10/14 07:22:32;;;;;;;12.90;4.70;;;;;;;;;;103667;1295;544957;-75
2023/10/14 07:26:06;;;;;;;12.00;4.30;;;;;;;;;;103802;1289;545141;-74
2023/10/14 07:29:45;;;;;;;11.10;4.60;;;;;;;;;;103682;1292;545264;-75
2023/10/14 07:33:20;;;;;;;10.60;4.10;;;;;;;;;;103829;1289;545068;-74
2023/10/14 07:36:57;;;;;;;10.50;4.10;;;;;;;;;;103831;1290;545101;-74
2023/10/14 07:40:35;;;;;;;12.10;4.10;;;;;;;;;;103661;1293;546084;-75
2023/10/14 07:44:12;;;;;;;11.90;4.50;;;;;;;;;;103698;1290;545545;-76
2023/10/14 07:47:50;;;;;;;9.50;4.50;;;;;;;;;;103755;1291;545648;-76
2023/10/14 07:51:27;;;;;;;11.20;4.10;;;;;;;;;;103931;1289;544748;-76
2023/10/14 07:55:10;;;;;;;13.00;4.50;;;;;;;;;;103832;1292;544817;-76
2023/10/14 07:58:42;;;;;;;13.80;4.80;;;;;;;;;;103649;1291;545642;-76
2023/10/14 08:02:19;;;;;;;10.00;4.80;;;;;;;;;;103818;1289;545483;-74
2023/10/14 08:05:59;;;;;;;12.00;4.70;;;;;;;;;;103873;1289;545540;-75
2023/10/14 08:09:39;;;;;;;9.50;4.20;;;;;;;;;;104361;1285;544999;-75
2023/10/14 08:13:33;;;;;;;12.00;4.60;;;;;;;;;;104160;1286;547960;-77
2023/10/14 08:16:49;;;;;;;12.90;4.40;;;;;;;;;;103871;1289;544730;-76
2023/10/14 08:20:29;;;;;;;10.70;4.60;;;;;;;;;;103723;1291;545047;-76
2023/10/14 08:24:05;;;;;;;10.70;4.60;;;;;;;;;;103732;1291;545045;-77
2023/10/14 08:27:43;;;;;;;12.10;4.90;;;;;;;;;;103973;1292;544784;-76
2023/10/14 08:31:20;;;;;;;10.40;4.50;;;;;;;;;;103876;1288;545309;-75
2023/10/14 08:34:56;;;;;;;10.90;4.70;;;;;;;;;;103795;1292;545186;-75
2023/10/14 08:38:34;;;;;;;9.70;4.50;;;;;;;;;;103726;1292;545007;-75
2023/10/14 08:42:12;;;;;;;10.30;4.40;;;;;;;;;;103789;1291;544870;-75
2023/10/14 08:45:49;;;;;;;10.60;4.60;;;;;;;;;;103729;1289;544780;-75
2023/10/14 08:49:28;;;;;;;8.90;4.30;;;;;;;;;;103879;1289;545239;-75
2023/10/14 08:53:22;;;;;;;10.10;4.70;;;;;;;;;;103654;1290;548063;-76
2023/10/14 08:56:42;;;;;;;12.70;4.90;;;;;;;;;;103769;1289;544841;-76
2023/10/14 09:00:23;;;;;;;14.00;5.20;;;;;;;;;;103888;1289;545528;-76
2023/10/14 09:04:03;;;;;;;11.00;4.80;;;;;;;;;;103467;1292;548214;-75
2023/10/14 09:07:32;;;;;;;14.40;4.30;;;;;;;;;;104064;1289;544913;-77
2023/10/14 09:11:36;;;;;;;10.10;4.20;;;;;;;;;;103237;1294;548227;-75
2023/10/14 09:14:50;;;;;;;11.20;4.40;;;;;;;;;;103647;1294;544781;-75
2023/10/14 09:18:56;;;;;;;12.40;4.30;;;;;;;;;;103537;1295;547967;-76
2023/10/14 09:22:04;;;;;;;12.00;4.90;;;;;;;;;;103954;1289;544858;-76
2023/10/14 09:26:06;;;;;;;9.30;4.00;;;;;;;;;;104039;1292;545012;-78
2023/10/14 09:29:19;;;;;;;9.20;4.40;;;;;;;;;;103746;1291;546323;-78
2023/10/14 09:32:56;;;;;;;10.50;4.60;;;;;;;;;;103759;1291;544808;-78
2023/10/14 09:36:34;;;;;;;11.20;4.30;;;;;;;;;;104131;1289;545257;-79
2023/10/14 09:40:17;;;;;;;14.00;4.70;;;;;;;;;;103902;1286;547804;-78
2023/10/14 09:43:49;;;;;;;9.10;3.80;;;;;;;;;;103853;1289;544739;-76
2023/10/14 09:47:26;;;;;;;10.10;4.60;;;;;;;;;;103646;1292;545604;-79
2023/10/14 10:01:32;;;;;;;11.70;4.40;;;;;;;;;;104534;1285;553590;-78
2023/10/14 10:04:30;;;;;;;10.50;4.40;;;;;;;;;;103805;1292;544990;-74
2023/10/14 10:08:08;;;;;;;10.20;4.10;;;;;;;;;;103635;1295;544979;-77
2023/10/14 10:11:40;;;;;;;11.30;4.90;;;;;;;;;;104027;1289;545688;-77
2023/10/14 10:15:23;;;;;;;10.40;4.50;;;;;;;;;;103503;1291;548215;-81
2023/10/14 10:19:01;;;;;;;13.10;4.90;;;;;;;;;;103655;1295;547785;-80
2023/10/14 10:22:41;;;;;;;11.70;4.60;;;;;;;;;;103462;1295;547896;-79
2023/10/14 10:26:17;;;;;;;11.10;4.60;;;;;;;;;;103614;1291;548576;-84
2023/10/14 10:29:55;;;;;;;11.80;5.10;;;;;;;;;;103734;1292;544919;-78
2023/10/14 10:33:50;;;;;;;13.40;5.50;;;;;;;;;;103596;1289;548046;-80
2023/10/14 10:37:17;;;;;;;13.30;4.50;;;;;;;;;;103755;1290;547799;-77
2023/10/14 10:51:21;;;;;;;7.50;2.60;;;;;;;;;;104506;1284;551212;-79
2023/10/14 11:04:42;;;;;;;4.40;1.30;;;;;;;;;;104882;1284;550570;-81
2023/10/14 11:07:43;;;;;;;6.20;1.50;;;;;;;;;;103598;1291;547971;-78
2023/10/14 11:11:18;;;;;;;3.20;1.10;;;;;;;;;;103638;1292;548523;-79
2023/10/14 11:14:48;;;;;;;4.10;1.70;;;;;;;;;;103716;1293;544797;-79
2023/10/14 11:18:45;;;;;;;2.30;1.10;;;;;;;;;;104079;1288;547989;-78
2023/10/14 11:22:15;;;;;;;2.30;0.90;;;;;;;;;;103640;1295;547972;-80
2023/10/14 11:25:55;;;;;;;2.10;0.90;;;;;;;;;;103614;1291;547992;-81
2023/10/14 11:29:33;;;;;;;2.80;1.00;;;;;;;;;;103560;1298;545791;-78
2023/10/14 11:33:11;;;;;;;4.20;1.10;;;;;;;;;;103522;1291;548168;-78
2023/10/14 11:36:45;;;;;;;1.70;0.80;;;;;;;;;;103748;1292;548007;-80
2023/10/14 11:40:17;;;;;;;2.00;0.80;;;;;;;;;;103733;1289;545135;-79
2023/10/14 11:44:00;;;;;;;2.70;0.70;;;;;;;;;;103550;1292;548151;-74
2023/10/14 11:47:38;;;;;;;1.10;0.60;;;;;;;;;;103677;1291;548098;-79
2023/10/14 11:51:19;;;;;;;2.00;0.60;;;;;;;;;;103543;1292;547815;-78
2023/10/14 11:54:48;;;;;;;1.60;0.60;;;;;;;;;;103718;1292;545056;-76
2023/10/14 11:58:30;;;;;;;2.50;0.70;;;;;;;;;;103575;1291;547807;-77
2023/10/14 12:02:01;;;;;;;1.40;0.70;;;;;;;;;;104654;1282;544760;-77
2023/10/14 12:05:39;;;;;;;2.20;0.70;;;;;;;;;;103709;1291;545689;-76
2023/10/14 12:09:22;;;;;;;3.10;0.70;;;;;;;;;;103900;1292;547833;-77
2023/10/14 12:12:59;;;;;;;1.80;0.70;;;;;;;;;;103527;1292;547975;-76
2023/10/14 12:16:40;;;;;;;2.30;0.80;;;;;;;;;;103594;1292;548211;-78
2023/10/14 12:20:11;;;;;;;3.80;0.80;;;;;;;;;;103736;1301;545533;-77
2023/10/14 12:23:51;;;;;;;3.30;0.80;;;;;;;;;;103663;1291;549293;-75
2023/10/14 12:27:29;;;;;;;3.20;0.90;;;;;;;;;;103610;1291;545336;-77
2023/10/14 12:31:11;;;;;;;3.80;0.90;;;;;;;;;;103961;1288;544995;-76
2023/10/14 12:34:45;;;;;;;2.50;0.90;;;;;;;;;;103513;1292;548023;-78
2023/10/14 12:38:22;;;;;;;3.60;0.90;;;;;;;;;;104072;1285;547961;-77
2023/10/14 12:42:00;;;;;;;2.60;0.90;;;;;;;;;;103804;1295;545432;-79
2023/10/14 12:45:32;;;;;;;4.20;1.00;;;;;;;;;;103723;1292;545016;-77
2023/10/14 12:49:10;;;;;;;3.90;1.10;;;;;;;;;;103731;1290;544999;-76
2023/10/14 12:53:04;;;;;;;3.30;0.90;;;;;;;;;;103607;1289;547963;-80
2023/10/14 12:56:30;;;;;;;5.10;1.20;;;;;;;;;;103614;1291;547762;-78
2023/10/14 13:00:00;;;;;;;4.20;1.20;;;;;;;;;;103726;1290;545977;-77
2023/10/14 13:03:41;;;;;;;3.40;1.10;;;;;;;;;;103991;1289;544990;-77
2023/10/14 13:07:15;;;;;;;4.60;1.20;;;;;;;;;;103635;1290;544852;-82
2023/10/14 13:10:52;;;;;;;3.10;0.70;;;;;;;;;;104022;1289;545037;-77
2023/10/14 13:14:37;;;;;;;5.80;1.10;;;;;;;;;;103465;1291;548102;-78
2023/10/14 13:18:12;;;;;;;3.60;0.90;;;;;;;;;;104868;1283;544963;-75
2023/10/14 13:21:45;;;;;;;4.80;1.30;;;;;;;;;;104102;1289;545738;-80
2023/10/14 13:25:23;;;;;;;4.20;1.10;;;;;;;;;;103828;1288;546077;-77
2023/10/14 13:29:00;;;;;;;3.80;1.20;;;;;;;;;;103724;1290;545238;-80
2023/10/14 13:32:38;;;;;;;3.20;1.00;;;;;;;;;;103702;1294;545304;-77
2023/10/14 13:36:21;;;;;;;6.10;1.80;;;;;;;;;;104355;1281;547758;-78
2023/10/14 13:39:52;;;;;;;4.30;1.20;;;;;;;;;;104269;1292;544979;-76
2023/10/14 13:43:30;;;;;;;5.40;0.90;;;;;;;;;;103633;1292;545279;-77
2023/10/14 13:47:13;;;;;;;4.30;1.10;;;;;;;;;;103482;1291;548489;-74
2023/10/14 13:50:45;;;;;;;4.20;1.20;;;;;;;;;;103624;1291;545455;-76
2023/10/14 13:54:28;;;;;;;3.90;1.10;;;;;;;;;;103641;1302;548119;-76
2023/10/14 13:58:12;;;;;;;3.50;1.10;;;;;;;;;;103589;1291;547915;-77
2023/10/14 14:01:43;;;;;;;5.10;1.20;;;;;;;;;;103572;1291;548489;-77
2023/10/14 14:05:19;;;;;;;4.60;1.20;;;;;;;;;;103783;1291;544802;-75
2023/10/14 14:08:53;;;;;;;5.00;1.10;;;;;;;;;;103703;1295;544797;-75
2023/10/14 14:12:32;;;;;;;4.40;1.20;;;;;;;;;;103759;1291;544836;-74
2023/10/14 14:16:13;;;;;;;5.90;1.40;;;;;;;;;;103661;1289;547863;-75
2023/10/14 14:19:45;;;;;;;5.70;1.20;;;;;;;;;;103740;1292;545486;-77
2023/10/14 14:23:30;;;;;;;4.90;1.40;;;;;;;;;;103665;1292;546291;-76
2023/10/14 14:27:01;;;;;;;5.50;1.50;;;;;;;;;;103727;1289;544963;-77
2023/10/14 14:30:39;;;;;;;5.80;1.40;;;;;;;;;;103665;1289;544776;-81
2023/10/14 14:44:43;;;;;;;5.70;1.50;;;;;;;;;;104610;1282;553484;-76
2023/10/14 14:47:42;;;;;;;4.00;1.10;;;;;;;;;;103773;1288;547791;-78
2023/10/14 14:51:13;;;;;;;4.70;1.40;;;;;;;;;;103748;1302;545744;-76
2023/10/14 14:54:58;;;;;;;7.20;1.10;;;;;;;;;;103611;1292;547911;-77
2023/10/14 14:58:28;;;;;;;4.70;1.10;;;;;;;;;;103805;1289;544947;-75
2023/10/14 15:02:07;;;;;;;4.20;1.20;;;;;;;;;;103730;1291;545017;-76
2023/10/14 15:05:52;;;;;;;4.90;1.40;;;;;;;;;;103528;1292;547950;-75
2023/10/14 15:09:27;;;;;;;8.80;1.30;;;;;;;;;;103477;1292;547807;-76
2023/10/14 15:13:02;;;;;;;7.20;1.40;;;;;;;;;;103685;1292;544950;-77
2023/10/14 15:16:37;;;;;;;6.80;1.40;;;;;;;;;;103798;1291;544898;-77
2023/10/14 15:20:13;;;;;;;7.70;1.30;;;;;;;;;;103763;1295;544598;-76
2023/10/14 15:23:50;;;;;;;5.30;1.70;;;;;;;;;;103741;1291;545551;-77
2023/10/14 15:27:33;;;;;;;7.20;1.70;;;;;;;;;;103606;1292;545648;-77
2023/10/14 15:31:17;;;;;;;7.80;1.50;;;;;;;;;;104602;1285;548008;-76
2023/10/14 15:34:48;;;;;;;6.80;1.50;;;;;;;;;;103526;1292;548183;-77
2023/10/14 15:38:26;;;;;;;7.80;1.50;;;;;;;;;;103650;1292;548400;-78
2023/10/14 15:42:03;;;;;;;7.90;2.60;;;;;;;;;;103437;1298;549245;-77
2023/10/14 15:45:41;;;;;;;7.30;1.80;;;;;;;;;;103595;1292;547826;-77
2023/10/14 15:49:12;;;;;;;5.90;1.90;;;;;;;;;;103770;1289;545590;-80
2023/10/14 15:52:56;;;;;;;8.20;2.30;;;;;;;;;;103321;1297;548167;-78
2023/10/14 15:56:33;;;;;;;8.70;1.90;;;;;;;;;;103719;1289;547867;-81
2023/10/14 16:00:09;;;;;;;10.10;3.60;;;;;;;;;;103758;1289;545086;-78
2023/10/14 16:03:48;;;;;;;8.80;2.50;;;;;;;;;;103664;1292;547769;-81
2023/10/14 16:07:26;;;;;;;11.70;4.80;;;;;;;;;;103698;1292;548001;-79
2023/10/14 16:10:59;;;;;;;11.10;3.00;;;;;;;;;;103806;1291;545245;-82
2023/10/14 16:14:40;;;;;;;9.60;3.10;;;;;;;;;;103600;1292;548040;-77
2023/10/14 16:18:18;;;;;;;9.40;3.00;;;;;;;;;;103576;1297;548145;-77
2023/10/14 16:21:50;;;;;;;9.60;2.40;;;;;;;;;;103776;1292;545977;-80
2023/10/14 16:25:27;;;;;;;8.00;2.30;;;;;;;;;;103745;1289;545748;-78
2023/10/14 16:29:08;;;;;;;8.50;2.20;;;;;;;;;;103737;1291;545677;-78
2023/10/14 16:32:44;;;;;;;8.40;2.20;;;;;;;;;;103848;1294;544955;-76
2023/10/14 16:36:20;;;;;;;8.10;2.20;;;;;;;;;;103781;1289;545706;-78
2023/10/14 16:39:57;;;;;;;7.40;2.10;;;;;;;;;;103745;1289;545006;-76
2023/10/14 16:43:35;;;;;;;7.30;1.80;;;;;;;;;;104005;1289;544959;-78
2023/10/14 16:47:12;;;;;;;8.20;2.10;;;;;;;;;;103783;1289;545023;-77
2023/10/14 16:50:49;;;;;;;6.50;1.80;;;;;;;;;;103756;1289;545238;-77
2023/10/14 16:54:29;;;;;;;10.50;4.30;;;;;;;;;;103800;1292;545018;-78
2023/10/14 16:58:05;;;;;;;9.00;2.50;;;;;;;;;;103785;1291;545082;-77
2023/10/14 17:01:42;;;;;;;8.70;2.00;;;;;;;;;;103887;1291;545064;-77
2023/10/14 17:05:23;;;;;;;7.20;2.70;;;;;;;;;;103639;1292;544810;-77
2023/10/14 17:08:57;;;;;;;8.90;3.20;;;;;;;;;;104274;1286;545835;-78
2023/10/14 17:12:38;;;;;;;8.00;2.90;;;;;;;;;;103803;1289;545514;-77
2023/10/14 17:16:13;;;;;;;11.10;4.80;;;;;;;;;;103813;1292;544749;-76
2023/10/14 17:19:52;;;;;;;9.90;2.60;;;;;;;;;;103716;1290;544874;-77
2023/10/14 17:23:27;;;;;;;13.30;5.10;;;;;;;;;;104038;1292;544863;-76
2023/10/14 17:27:10;;;;;;;13.20;4.00;;;;;;;;;;103643;1293;547991;-76
2023/10/14 17:30:43;;;;;;;10.80;3.30;;;;;;;;;;103761;1292;544963;-76
2023/10/14 17:34:25;;;;;;;11.50;3.30;;;;;;;;;;103630;1289;548129;-78
2023/10/14 17:37:57;;;;;;;10.30;2.80;;;;;;;;;;103965;1288;545270;-76
2023/10/14 17:41:34;;;;;;;10.40;2.70;;;;;;;;;;103778;1291;544805;-76
2023/10/14 17:45:38;;;;;;;9.80;2.30;;;;;;;;;;103683;1294;549065;-77
2023/10/14 17:48:50;;;;;;;8.10;2.20;;;;;;;;;;103450;1295;545245;-77
2023/10/14 17:52:26;;;;;;;9.50;2.60;;;;;;;;;;103773;1290;545637;-77
2023/10/14 17:56:05;;;;;;;7.70;2.20;;;;;;;;;;103789;1289;545463;-76
2023/10/14 17:59:47;;;;;;;8.10;2.30;;;;;;;;;;103609;1291;547926;-78
2023/10/14 18:03:24;;;;;;;32.70;20.10;;;;;;;;;;103681;1290;548509;-76
2023/10/14 18:06:56;;;;;;;18.40;10.80;;;;;;;;;;103734;1290;544956;-77
2023/10/14 18:10:53;;;;;;;14.40;5.90;;;;;;;;;;103789;1292;547786;-76
2023/10/14 18:24:40;;;;;;;10.80;4.50;;;;;;;;;;104360;1285;556316;-77
2023/10/14 18:27:33;;;;;;;9.60;4.10;;;;;;;;;;103965;1292;544847;-77
2023/10/14 18:31:11;;;;;;;7.50;2.50;;;;;;;;;;103837;1292;544782;-78
2023/10/14 18:34:48;;;;;;;9.40;2.50;;;;;;;;;;103776;1289;546171;-77
2023/10/14 18:38:26;;;;;;;9.80;2.60;;;;;;;;;;103796;1292;545516;-77
2023/10/14 18:42:03;;;;;;;8.10;2.70;;;;;;;;;;103859;1301;545231;-77
2023/10/14 18:45:42;;;;;;;8.50;2.60;;;;;;;;;;103857;1289;544978;-78
2023/10/14 18:49:22;;;;;;;7.80;2.20;;;;;;;;;;104674;1279;546560;-77
2023/10/14 18:53:15;;;;;;;9.10;2.40;;;;;;;;;;104155;1286;545875;-78
2023/10/14 18:56:38;;;;;;;8.00;2.50;;;;;;;;;;103733;1289;544731;-79
2023/10/14 19:00:14;;;;;;;9.80;2.90;;;;;;;;;;103740;1291;545109;-77
2023/10/14 19:03:59;;;;;;;9.90;2.40;;;;;;;;;;103708;1289;548231;-78
2023/10/14 19:07:31;;;;;;;8.40;2.20;;;;;;;;;;103951;1288;547990;-77
2023/10/14 19:11:08;;;;;;;9.20;2.30;;;;;;;;;;104186;1285;545914;-77
2023/10/14 19:14:42;;;;;;;9.90;2.70;;;;;;;;;;103983;1288;545067;-78
2023/10/14 19:18:18;;;;;;;9.00;2.70;;;;;;;;;;103738;1291;544934;-77
2023/10/14 19:22:01;;;;;;;9.60;2.50;;;;;;;;;;103457;1296;548309;-77
2023/10/14 19:25:40;;;;;;;10.00;2.70;;;;;;;;;;103546;1291;547889;-77
2023/10/14 19:29:11;;;;;;;10.10;3.10;;;;;;;;;;103737;1292;544721;-77
2023/10/14 19:32:53;;;;;;;8.70;2.90;;;;;;;;;;103618;1301;547845;-77
2023/10/14 19:36:32;;;;;;;9.70;3.00;;;;;;;;;;103626;1291;547800;-76
2023/10/14 19:40:14;;;;;;;9.10;2.70;;;;;;;;;;103534;1292;547951;-76
2023/10/14 19:43:41;;;;;;;8.90;2.40;;;;;;;;;;104062;1286;545692;-76
2023/10/14 19:47:17;;;;;;;8.70;2.40;;;;;;;;;;103706;1292;545109;-77
2023/10/14 19:50:55;;;;;;;11.40;2.50;;;;;;;;;;103853;1289;545073;-76
2023/10/14 19:54:34;;;;;;;10.00;2.60;;;;;;;;;;103651;1289;545004;-76
2023/10/14 19:58:12;;;;;;;10.30;2.60;;;;;;;;;;103582;1295;544935;-76
2023/10/14 20:01:47;;;;;;;10.30;3.20;;;;;;;;;;103748;1288;544900;-76
2023/10/14 20:05:26;;;;;;;11.10;3.80;;;;;;;;;;103655;1293;544979;-76
2023/10/14 20:09:02;;;;;;;13.20;3.40;;;;;;;;;;103668;1292;544940;-77
2023/10/14 20:12:49;;;;;;;10.60;3.80;;;;;;;;;;103436;1305;548214;-76
2023/10/14 20:16:17;;;;;;;14.20;4.00;;;;;;;;;;103699;1290;545791;-76
2023/10/14 20:19:54;;;;;;;10.40;3.90;;;;;;;;;;103808;1289;545615;-76
2023/10/14 20:23:35;;;;;;;13.60;3.70;;;;;;;;;;103773;1292;545059;-76
2023/10/14 20:27:10;;;;;;;10.70;3.40;;;;;;;;;;103683;1295;544881;-76
2023/10/14 20:30:49;;;;;;;11.20;3.90;;;;;;;;;;103925;1289;546345;-76
2023/10/14 20:34:25;;;;;;;11.00;3.80;;;;;;;;;;103748;1296;545007;-76
2023/10/14 20:38:02;;;;;;;11.10;4.00;;;;;;;;;;103765;1289;544945;-76
2023/10/14 20:41:40;;;;;;;12.60;3.70;;;;;;;;;;103555;1291;545267;-76
2023/10/14 20:45:17;;;;;;;10.90;3.40;;;;;;;;;;103676;1291;544972;-78
2023/10/14 20:48:50;;;;;;;9.90;3.70;;;;;;;;;;103706;1289;544845;-76
2023/10/14 20:52:54;;;;;;;10.70;3.80;;;;;;;;;;104098;1288;547886;-76
2023/10/14 20:56:10;;;;;;;10.80;4.10;;;;;;;;;;103741;1301;544911;-76
2023/10/14 20:59:46;;;;;;;14.10;5.30;;;;;;;;;;104123;1293;544955;-76
2023/10/14 21:03:26;;;;;;;13.70;5.70;;;;;;;;;;104527;1281;544732;-76
2023/10/14 21:07:03;;;;;;;14.60;5.30;;;;;;;;;;103998;1296;545066;-76
2023/10/14 21:10:41;;;;;;;11.90;4.50;;;;;;;;;;103716;1289;544967;-76
2023/10/14 21:14:19;;;;;;;13.40;4.30;;;;;;;;;;103862;1289;545364;-76
2023/10/14 21:17:56;;;;;;;11.70;4.00;;;;;;;;;;103686;1292;544968;-76
2023/10/14 21:21:34;;;;;;;11.10;4.30;;;;;;;;;;103771;1291;545396;-75
2023/10/14 21:25:15;;;;;;;13.00;4.40;;;;;;;;;;103689;1292;544848;-77
2023/10/14 21:28:48;;;;;;;9.90;3.40;;;;;;;;;;103729;1289;545184;-76
2023/10/14 21:32:26;;;;;;;11.00;3.60;;;;;;;;;;103599;1295;544928;-76
2023/10/14 21:35:59;;;;;;;10.60;3.00;;;;;;;;;;103689;1296;545385;-76
2023/10/14 21:39:41;;;;;;;9.30;2.70;;;;;;;;;;103740;1289;544919;-76
2023/10/14 21:43:19;;;;;;;9.70;2.70;;;;;;;;;;103751;1289;544871;-76
2023/10/14 21:46:55;;;;;;;11.30;2.60;;;;;;;;;;103736;1292;545118;-76
2023/10/14 21:50:34;;;;;;;11.30;2.50;;;;;;;;;;103769;1289;545037;-76
2023/10/14 21:54:10;;;;;;;9.70;2.40;;;;;;;;;;103666;1292;544837;-76
2023/10/14 21:57:52;;;;;;;10.40;2.40;;;;;;;;;;103902;1301;546413;-77
2023/10/14 22:01:26;;;;;;;9.90;2.40;;;;;;;;;;103777;1289;545031;-78